Time;durP1;ratioP1;P1;durP2;ratioP2;P2;SDS_P1;SDS_P2;PMS_P1;PMS_P2;Temp;Humidity;BMP_temperature;BMP_pressure;BME280_temperature;BME280_humidity;BME280_pressure;Samples;Min_cycle;Max_cycle;Signal;HPM_P1;HPM_P2
2023/12/29 00:01:08;;;;;;;30.27;14.07;;;0.90;99.90;;;-1.20;100.00;100563.59;10336115;28;97219;-87
2023/12/29 00:06:12;;;;;;;30.83;13.13;;;0.90;99.90;;;-1.17;100.00;100553.00;10334445;28;96826;-88
2023/12/29 00:11:20;;;;;;;31.07;11.37;;;0.90;99.90;;;-1.14;100.00;100546.75;10319217;28;96608;-88
2023/12/29 00:16:23;;;;;;;36.67;12.63;;;1.00;99.90;;;-1.09;100.00;100539.50;10334379;28;97011;-87
2023/12/29 00:21:27;;;;;;;37.57;14.37;;;1.00;99.90;;;-1.06;100.00;100525.47;10335136;28;96685;-89
2023/12/29 00:26:30;;;;;;;34.93;14.93;;;1.10;99.90;;;-1.02;100.00;100530.44;10328337;28;96829;-88
2023/12/29 00:31:34;;;;;;;27.37;12.53;;;1.10;99.90;;;-1.00;100.00;100530.34;10331525;28;97722;-90
2023/12/29 00:36:37;;;;;;;25.87;11.43;;;1.00;99.90;;;-0.96;100.00;100530.09;10333533;28;96591;-88
2023/12/29 00:41:41;;;;;;;25.83;10.90;;;1.10;99.90;;;-0.96;100.00;100522.28;10334388;28;96565;-88
2023/12/29 00:46:46;;;;;;;29.17;11.17;;;1.10;99.90;;;-0.90;100.00;100526.28;10334381;28;97218;-87
2023/12/29 00:51:50;;;;;;;31.60;12.73;;;1.20;99.90;;;-0.89;100.00;100502.75;10336675;28;96782;-87
2023/12/29 00:56:53;;;;;;;31.47;12.03;;;1.20;99.90;;;-0.82;100.00;100517.09;10336618;28;96784;-88
2023/12/29 01:01:57;;;;;;;32.30;14.83;;;1.20;99.90;;;-0.81;100.00;100520.56;10332255;28;97886;-87
2023/12/29 01:07:00;;;;;;;37.30;14.57;;;1.20;99.90;;;-0.83;100.00;100530.25;10335364;28;96611;-88
2023/12/29 01:12:04;;;;;;;32.50;14.53;;;1.30;99.90;;;-0.87;100.00;100526.97;10328995;28;96932;-87
2023/12/29 01:17:08;;;;;;;31.97;11.87;;;1.20;99.90;;;-0.94;100.00;100528.25;10320390;28;96566;-88
2023/12/29 01:22:12;;;;;;;27.17;11.57;;;1.20;99.90;;;-0.96;100.00;100535.31;10334375;28;96642;-88
2023/12/29 01:27:16;;;;;;;29.97;12.57;;;1.10;99.90;;;-1.01;100.00;100521.69;10335427;28;97902;-88
2023/12/29 01:32:20;;;;;;;29.50;13.10;;;1.10;99.90;;;-1.08;100.00;100510.78;10347399;28;97897;-87
2023/12/29 01:37:23;;;;;;;32.07;12.87;;;1.00;99.90;;;-1.11;100.00;100515.31;10336448;28;97009;-87
2023/12/29 01:42:26;;;;;;;30.47;12.73;;;1.00;99.90;;;-1.20;100.00;100498.41;10348475;28;97516;-87
2023/12/29 01:47:30;;;;;;;35.20;12.97;;;0.90;99.90;;;-1.24;100.00;100498.66;10340861;28;97016;-88
2023/12/29 01:52:33;;;;;;;32.53;13.03;;;0.90;99.90;;;-1.29;100.00;100496.31;10339268;28;98545;-88
2023/12/29 01:57:38;;;;;;;29.90;12.47;;;0.80;99.90;;;-1.35;100.00;100492.25;10333133;28;98060;-88
2023/12/29 02:02:42;;;;;;;37.77;16.03;;;0.80;99.90;;;-1.25;100.00;100497.00;10339616;28;97812;-88
2023/12/29 02:07:46;;;;;;;36.90;14.67;;;0.80;99.90;;;-1.19;100.00;100494.88;10325885;28;96721;-88
2023/12/29 02:12:50;;;;;;;29.73;13.47;;;0.90;99.90;;;-1.11;100.00;100494.44;10341314;28;97033;-87
2023/12/29 02:18:03;;;;;;;33.27;14.23;;;1.00;99.90;;;-1.06;100.00;100484.59;10335606;28;97009;-87
2023/12/29 02:23:09;;;;;;;32.77;15.07;;;1.10;99.90;;;-1.11;100.00;100465.75;10338265;28;96587;-88
2023/12/29 02:28:26;;;;;;;32.20;12.77;;;1.10;99.90;;;-0.98;100.00;100474.53;10334912;28;96570;-87
2023/12/29 02:33:32;;;;;;;41.30;14.40;;;1.10;99.90;;;-0.99;100.00;100467.66;10325600;28;96593;-88
2023/12/29 02:38:37;;;;;;;42.97;15.50;;;1.20;99.90;;;-0.90;100.00;100468.88;10343079;28;96560;-88
2023/12/29 02:43:40;;;;;;;38.90;17.13;;;1.20;99.90;;;-0.87;100.00;100461.72;10340791;28;96988;-88
2023/12/29 02:48:44;;;;;;;41.23;16.30;;;1.20;99.90;;;-0.81;100.00;100465.75;10330606;28;97249;-86
2023/12/29 02:53:48;;;;;;;48.80;18.37;;;1.30;99.90;;;-0.82;100.00;100470.13;10342363;28;97850;-88
2023/12/29 02:58:52;;;;;;;38.97;15.47;;;1.30;99.90;;;-0.83;100.00;100458.03;10337700;28;96640;-88
2023/12/29 03:03:56;;;;;;;37.10;14.97;;;1.20;99.90;;;-0.88;100.00;100465.28;10342324;28;96509;-88
2023/12/29 03:08:59;;;;;;;37.70;16.07;;;1.20;99.90;;;-0.90;100.00;100461.94;10337670;28;96696;-88
2023/12/29 03:14:03;;;;;;;36.43;15.00;;;1.20;99.90;;;-0.90;100.00;100468.88;10341498;28;96653;-88
2023/12/29 03:19:07;;;;;;;33.17;14.80;;;1.20;99.90;;;-0.94;100.00;100452.59;10339052;28;97030;-88
2023/12/29 03:24:11;;;;;;;31.20;13.43;;;1.20;99.90;;;-0.91;100.00;100455.00;10333398;28;96657;-88
2023/12/29 03:29:14;;;;;;;41.70;14.47;;;1.20;99.90;;;-0.82;100.00;100449.25;10341432;28;97894;-87
2023/12/29 03:34:17;;;;;;;38.90;16.63;;;1.20;99.90;;;-0.79;100.00;100450.00;10340430;28;97800;-88
2023/12/29 03:39:23;;;;;;;32.47;14.87;;;1.30;99.90;;;-0.79;100.00;100444.78;10335978;28;96930;-88
2023/12/29 03:44:26;;;;;;;31.77;14.07;;;1.30;99.90;;;-0.79;100.00;100447.41;10346068;28;97578;-88
2023/12/29 03:49:30;;;;;;;40.00;14.83;;;1.30;99.90;;;-0.75;100.00;100454.13;10330808;28;98381;-88
2023/12/29 03:54:33;;;;;;;38.33;15.07;;;1.30;99.90;;;-0.75;100.00;100448.91;10337821;28;96948;-88
2023/12/29 03:59:37;;;;;;;37.77;13.53;;;1.30;99.90;;;-0.73;100.00;100450.47;10314032;28;96575;-88
2023/12/29 04:04:41;;;;;;;39.43;16.10;;;1.30;99.90;;;-0.75;100.00;100454.13;10339693;28;97794;-92
2023/12/29 04:09:45;;;;;;;39.73;15.97;;;1.30;99.90;;;-0.74;100.00;100463.63;10334148;28;97120;-90
2023/12/29 04:14:48;;;;;;;34.43;14.40;;;1.30;99.90;;;-0.82;100.00;100461.47;10329845;28;96607;-90
2023/12/29 04:19:53;;;;;;;34.77;14.00;;;1.30;99.90;;;-0.88;100.00;100461.81;10337384;28;96692;-91
2023/12/29 04:24:56;;;;;;;40.47;18.13;;;1.20;99.90;;;-0.91;100.00;100459.38;10336105;28;96518;-89
2023/12/29 04:29:59;;;;;;;41.30;16.83;;;1.20;99.90;;;-0.99;100.00;100452.00;10329020;28;96737;-89
2023/12/29 04:35:04;;;;;;;37.17;16.90;;;1.10;99.90;;;-1.07;100.00;100449.00;10335710;28;96740;-87
2023/12/29 04:40:08;;;;;;;30.20;12.63;;;1.00;99.90;;;-1.18;100.00;100443.56;10330258;28;98031;-89
2023/12/29 04:45:11;;;;;;;39.77;15.80;;;1.00;99.90;;;-1.22;100.00;100455.91;10332664;28;96674;-89
2023/12/29 04:50:15;;;;;;;41.57;17.33;;;0.90;99.90;;;-1.27;100.00;100463.16;10334738;28;96666;-89
2023/12/29 04:55:20;;;;;;;32.87;15.07;;;0.80;99.90;;;-1.36;100.00;100461.06;10337485;28;96636;-89
2023/12/29 05:00:23;;;;;;;38.83;15.53;;;0.80;99.90;;;-1.47;100.00;100461.66;10350706;28;96757;-88
2023/12/29 05:05:26;;;;;;;26.27;12.23;;;0.70;99.90;;;-1.50;100.00;100477.50;10320120;28;97599;-87
2023/12/29 05:10:30;;;;;;;44.50;16.17;;;0.60;99.90;;;-1.54;100.00;100475.97;10334788;28;96657;-87
2023/12/29 05:15:34;;;;;;;34.07;14.40;;;0.60;99.90;;;-1.51;100.00;100469.72;10336709;28;97396;-88
2023/12/29 05:20:37;;;;;;;44.13;17.93;;;0.60;99.90;;;-1.47;100.00;100471.25;10341798;28;96755;-88
2023/12/29 05:25:41;;;;;;;47.43;17.10;;;0.60;99.90;;;-1.42;100.00;100474.44;10346801;28;99711;-87
2023/12/29 05:30:44;;;;;;;38.27;15.67;;;0.70;99.90;;;-1.37;100.00;100478.50;10341266;28;96688;-87
2023/12/29 05:35:48;;;;;;;48.37;19.03;;;0.70;99.90;;;-1.38;100.00;100466.38;10343171;28;97560;-87
2023/12/29 05:40:51;;;;;;;51.33;20.50;;;0.80;99.90;;;-1.36;100.00;100480.16;10340287;28;97855;-87
2023/12/29 05:45:54;;;;;;;52.87;17.53;;;0.80;99.90;;;-1.30;100.00;100489.41;10337781;28;96657;-87
2023/12/29 05:50:58;;;;;;;89.73;25.80;;;0.80;99.90;;;-1.21;100.00;100495.88;10336898;28;96923;-89
2023/12/29 05:56:01;;;;;;;106.07;26.73;;;0.80;99.90;;;-1.16;100.00;100505.13;10337210;28;97382;-90
2023/12/29 06:01:05;;;;;;;115.67;23.37;;;0.90;99.90;;;-1.10;100.00;100496.94;10352959;28;96659;-90
2023/12/29 06:06:08;;;;;;;108.63;33.23;;;1.00;99.90;;;-1.03;100.00;100487.00;10341824;28;97193;-89
2023/12/29 06:11:16;;;;;;;90.30;25.77;;;1.10;99.90;;;-0.96;100.00;100490.97;10340304;28;97933;-89
2023/12/29 06:16:20;;;;;;;94.43;27.63;;;1.10;99.90;;;-0.94;100.00;100481.28;10325676;28;96803;-89
2023/12/29 06:21:23;;;;;;;99.33;26.63;;;1.10;99.90;;;-0.88;100.00;100480.94;10335875;28;96718;-86
2023/12/29 06:26:27;;;;;;;100.77;28.17;;;1.20;99.90;;;-0.86;100.00;100486.88;10320518;28;96729;-85
2023/12/29 06:31:30;;;;;;;99.43;27.53;;;1.20;99.90;;;-0.82;100.00;100484.97;10333698;28;97287;-87
2023/12/29 06:36:34;;;;;;;124.07;30.63;;;1.20;99.90;;;-0.82;100.00;100487.56;10337904;28;97754;-88
2023/12/29 06:41:37;;;;;;;93.87;22.43;;;1.20;99.90;;;-0.80;100.00;100483.09;10338879;28;96691;-87
2023/12/29 06:46:40;;;;;;;82.57;20.27;;;1.30;99.90;;;-0.77;100.00;100487.31;10320917;28;96803;-87
2023/12/29 06:51:45;;;;;;;63.73;17.87;;;1.30;99.90;;;-0.78;100.00;100491.69;10339278;28;97773;-87
2023/12/29 06:56:48;;;;;;;56.90;16.67;;;1.20;99.90;;;-0.79;100.00;100478.72;10335402;28;96875;-87
2023/12/29 07:01:52;;;;;;;73.80;18.63;;;1.20;99.90;;;-0.79;100.00;100487.38;10333197;28;96571;-86
2023/12/29 07:06:57;;;;;;;70.27;17.80;;;1.20;99.90;;;-0.76;100.00;100479.38;10339813;28;97238;-87
2023/12/29 07:12:00;;;;;;;56.33;17.77;;;1.20;99.90;;;-0.71;100.00;100486.94;10338665;28;96945;-86
2023/12/29 07:17:04;;;;;;;81.73;20.03;;;1.30;99.90;;;-0.64;100.00;100483.88;10333536;28;98457;-85
2023/12/29 07:22:08;;;;;;;114.73;27.67;;;1.40;99.90;;;-0.57;100.00;100489.59;10335972;28;98326;-86
2023/12/29 07:27:12;;;;;;;72.63;20.73;;;1.40;99.90;;;-0.54;100.00;100492.00;10330841;28;98305;-86
2023/12/29 07:32:15;;;;;;;59.27;17.63;;;1.50;99.90;;;-0.51;100.00;100491.84;10325078;28;98662;-85
2023/12/29 07:37:19;;;;;;;63.17;18.73;;;1.50;99.90;;;-0.49;100.00;100497.78;10323401;28;96977;-86
2023/12/29 07:42:22;;;;;;;74.83;19.13;;;1.60;99.90;;;-0.47;100.00;100503.78;10329024;28;96758;-86
2023/12/29 07:47:26;;;;;;;54.77;17.90;;;1.60;99.90;;;-0.48;100.00;100503.84;10330603;28;97895;-86
2023/12/29 07:52:30;;;;;;;92.80;37.07;;;1.60;99.90;;;-0.46;100.00;100483.75;10333235;28;96837;-86
2023/12/29 07:57:34;;;;;;;93.33;23.83;;;1.60;99.90;;;-0.45;100.00;100498.47;10332759;28;96960;-86
2023/12/29 08:02:37;;;;;;;73.60;22.40;;;1.50;99.90;;;-0.39;100.00;100493.72;10323129;28;97371;-85
2023/12/29 08:07:41;;;;;;;66.60;21.23;;;1.60;99.90;;;-0.28;100.00;100501.75;10336668;28;98151;-86
2023/12/29 08:12:45;;;;;;;98.93;23.50;;;1.70;99.90;;;-0.16;100.00;100501.97;10337373;28;97963;-86
2023/12/29 08:17:48;;;;;;;83.60;22.23;;;1.80;99.90;;;-0.05;100.00;100507.41;10323806;28;97773;-86
2023/12/29 08:22:52;;;;;;;90.40;23.07;;;1.90;99.90;;;-0.03;100.00;100489.84;10328802;28;98176;-86
2023/12/29 08:27:58;;;;;;;72.70;19.93;;;2.00;99.90;;;0.02;100.00;100502.63;10335632;28;97730;-86
2023/12/29 08:33:02;;;;;;;73.30;23.80;;;2.00;99.90;;;0.05;100.00;100498.03;10329958;28;96844;-86
2023/12/29 08:38:05;;;;;;;88.43;25.87;;;2.00;99.90;;;0.11;100.00;100502.88;10326955;28;98304;-87
2023/12/29 08:43:09;;;;;;;71.83;25.73;;;2.10;99.90;;;0.25;100.00;100495.06;10336284;28;98045;-86
2023/12/29 08:48:12;;;;;;;73.63;25.13;;;2.20;99.90;;;0.42;100.00;100506.22;10328707;28;98027;-85
2023/12/29 08:53:17;;;;;;;98.93;31.30;;;2.40;99.90;;;0.56;100.00;100523.69;10332051;28;97057;-87
2023/12/29 08:58:20;;;;;;;81.80;26.13;;;2.50;99.90;;;0.65;100.00;100526.53;10334739;28;97999;-85
2023/12/29 09:03:24;;;;;;;68.00;22.90;;;2.60;99.90;;;0.71;100.00;100517.47;10333219;28;96575;-85
2023/12/29 09:08:27;;;;;;;56.47;19.83;;;2.70;99.90;;;0.73;100.00;100495.53;10322514;28;96560;-85
2023/12/29 09:13:31;;;;;;;89.13;24.77;;;2.80;99.90;;;0.75;100.00;100516.34;10330625;28;96879;-85
2023/12/29 09:18:35;;;;;;;59.90;19.50;;;2.80;99.90;;;0.82;100.00;100528.09;10311641;28;98423;-85
2023/12/29 09:23:40;;;;;;;76.07;18.63;;;2.80;99.90;;;0.84;100.00;100528.88;10343421;28;97987;-86
2023/12/29 09:28:44;;;;;;;68.67;19.80;;;2.80;99.90;;;0.86;100.00;100519.13;10317254;28;96943;-87
2023/12/29 09:33:48;;;;;;;58.33;17.60;;;2.90;99.90;;;0.93;100.00;100511.72;10330617;28;96806;-86
2023/12/29 09:38:51;;;;;;;70.80;21.50;;;2.90;99.90;;;0.96;100.00;100511.50;10345900;28;97309;-86
2023/12/29 09:43:55;;;;;;;80.63;21.77;;;2.90;99.90;;;1.01;100.00;100515.50;10333430;28;96594;-86
2023/12/29 09:49:04;;;;;;;64.93;19.57;;;3.10;99.90;;;1.09;100.00;100495.88;10335412;28;96865;-87
2023/12/29 09:54:10;;;;;;;84.17;23.40;;;3.10;99.90;;;1.18;100.00;100495.25;10335038;28;96870;-87
2023/12/29 09:59:17;;;;;;;74.23;24.27;;;3.20;99.90;;;1.19;100.00;100489.09;10363943;28;97254;-87
2023/12/29 10:04:21;;;;;;;63.03;21.80;;;3.30;99.90;;;1.27;100.00;100500.75;10342665;28;97154;-87
2023/12/29 10:09:27;;;;;;;66.20;21.30;;;3.30;99.90;;;1.31;100.00;100491.72;10341509;28;96541;-86
2023/12/29 10:14:46;;;;;;;64.70;22.33;;;3.30;99.90;;;1.44;100.00;100481.31;10353708;28;97022;-86
2023/12/29 10:20:05;;;;;;;69.27;23.17;;;3.40;99.90;;;1.57;100.00;100465.59;10342995;28;96388;-87
2023/12/29 10:25:09;;;;;;;61.87;20.87;;;3.60;99.90;;;1.74;100.00;100474.91;10341343;28;96632;-87
2023/12/29 10:30:14;;;;;;;68.00;21.63;;;3.70;99.90;;;1.80;100.00;100467.50;10340222;28;97006;-86
2023/12/29 10:35:31;;;;;;;60.70;21.83;;;3.80;99.90;;;1.78;100.00;100465.91;10320682;28;96818;-86
2023/12/29 10:40:36;;;;;;;61.33;22.17;;;3.80;99.90;;;1.84;100.00;100458.47;10341111;28;96680;-87
2023/12/29 10:45:39;;;;;;;46.13;21.73;;;3.80;99.90;;;1.92;100.00;100451.84;10339886;28;97991;-87
2023/12/29 10:50:44;;;;;;;64.67;21.77;;;3.90;99.90;;;1.97;100.00;100455.00;10339864;28;96583;-86
2023/12/29 10:55:48;;;;;;;54.47;19.53;;;3.90;99.90;;;1.92;100.00;100436.13;10341989;28;96547;-87
2023/12/29 11:00:52;;;;;;;51.73;19.97;;;3.80;99.90;;;1.92;100.00;100449.22;10340026;28;97532;-86
2023/12/29 11:06:02;;;;;;;58.30;21.87;;;3.80;99.90;;;1.94;100.00;100442.09;10340480;28;96585;-86
2023/12/29 11:11:06;;;;;;;43.90;19.37;;;3.90;99.90;;;1.93;100.00;100443.91;10341311;28;96450;-87
2023/12/29 11:16:10;;;;;;;53.70;19.63;;;3.80;99.90;;;1.85;100.00;100427.84;10327798;28;96966;-86
2023/12/29 11:21:15;;;;;;;59.60;21.50;;;3.70;99.90;;;1.76;100.00;100416.25;10320782;28;96914;-87
2023/12/29 11:26:19;;;;;;;59.03;21.70;;;3.70;99.90;;;1.86;100.00;100393.69;10315362;28;96441;-87
2023/12/29 11:31:22;;;;;;;54.57;23.10;;;3.80;99.90;;;2.02;100.00;100400.47;10348985;28;98342;-87
2023/12/29 11:36:35;;;;;;;50.83;23.40;;;3.90;99.90;;;2.20;100.00;100393.06;10338323;28;96851;-86
2023/12/29 11:42:10;;;;;;;60.93;23.77;;;4.10;99.90;;;2.38;100.00;100376.84;10339059;28;96522;-87
2023/12/29 11:47:41;;;;;;;62.83;27.73;;;4.20;99.90;;;2.55;100.00;100369.56;10338705;28;96674;-87
2023/12/29 11:52:45;;;;;;;65.10;28.58;;;4.50;99.90;;;2.63;100.00;100352.28;10343255;28;96574;-88
2023/12/29 11:57:48;;;;;;;71.67;29.13;;;4.60;99.90;;;2.75;100.00;100349.69;10333037;28;96839;-84
2023/12/29 12:02:52;;;;;;;61.93;27.33;;;4.70;99.90;;;2.79;100.00;100357.25;10325426;28;96674;-83
2023/12/29 12:07:58;;;;;;;63.77;26.40;;;4.80;99.90;;;2.92;100.00;100347.50;10334183;28;97269;-85
2023/12/29 12:13:02;;;;;;;63.27;26.73;;;4.90;99.90;;;3.08;100.00;100341.94;10335608;28;97528;-85
2023/12/29 12:18:07;;;;;;;66.37;28.70;;;5.00;99.90;;;3.36;100.00;100335.41;10353345;28;96607;-85
2023/12/29 12:23:17;;;;;;;67.27;27.83;;;5.30;99.90;;;3.49;100.00;100338.75;10344029;28;98447;-84
2023/12/29 12:28:22;;;;;;;52.30;22.33;;;5.40;99.90;;;3.52;100.00;100329.78;10349810;28;98419;-85
2023/12/29 12:33:27;;;;;;;56.60;27.40;;;5.40;99.90;;;3.50;100.00;100336.97;10343424;28;96581;-86
2023/12/29 12:38:33;;;;;;;65.50;28.63;;;5.40;99.90;;;3.51;100.00;100335.19;10334333;28;96819;-87
2023/12/29 12:43:45;;;;;;;60.83;27.30;;;5.40;99.90;;;3.46;100.00;100320.59;10336555;28;99052;-86
2023/12/29 12:48:49;;;;;;;;;;;5.40;99.90;;;3.40;100.00;100315.81;10323476;28;96781;-86
2023/12/29 12:53:53;;;;;;;57.17;25.10;;;5.40;99.90;;;3.30;100.00;100309.63;10338948;28;97066;-85
2023/12/29 12:59:02;;;;;;;75.17;32.93;;;5.20;99.90;;;3.15;100.00;100313.41;10335874;28;96709;-86
2023/12/29 13:04:07;;;;;;;82.17;36.37;;;5.10;99.90;;;3.13;100.00;100318.78;10334254;28;96603;-84
2023/12/29 13:09:12;;;;;;;72.90;33.93;;;5.00;99.90;;;3.26;100.00;100308.19;10321689;28;96599;-85
2023/12/29 13:14:22;;;;;;;69.20;32.70;;;5.20;99.90;;;3.37;100.00;100307.34;10331035;28;96937;-87
2023/12/29 13:19:27;;;;;;;62.37;28.77;;;5.20;99.90;;;3.49;100.00;100309.84;10331585;28;96899;-89
2023/12/29 13:24:31;;;;;;;52.73;25.23;;;5.40;99.90;;;3.58;100.00;100317.97;10331288;28;96809;-85
2023/12/29 13:29:35;;;;;;;44.73;22.73;;;5.50;99.90;;;3.67;100.00;100312.00;10331010;28;96750;-84
2023/12/29 13:35:11;;;;;;;48.07;23.47;;;5.60;99.90;;;3.76;100.00;100298.94;10333169;28;96553;-85
2023/12/29 13:40:37;;;;;;;49.63;22.73;;;5.70;99.90;;;3.86;100.00;100306.97;10331493;28;96904;-85
2023/12/29 13:45:41;;;;;;;49.70;23.50;;;5.80;99.90;;;3.88;100.00;100309.47;10320375;28;96771;-85
2023/12/29 13:50:48;;;;;;;53.27;24.17;;;5.80;99.90;;;3.95;100.00;100306.19;10338605;28;96640;-84
2023/12/29 13:55:52;;;;;;;61.30;28.97;;;5.90;99.90;;;3.96;100.00;100305.28;10337002;28;96879;-85
2023/12/29 14:00:59;;;;;;;69.07;30.07;;;5.90;99.90;;;4.01;100.00;100308.34;10342121;28;97009;-85
2023/12/29 14:06:11;;;;;;;49.77;23.63;;;6.00;99.90;;;4.00;100.00;100314.56;10327850;28;96578;-85
2023/12/29 14:11:14;;;;;;;51.37;25.00;;;6.00;99.90;;;4.05;100.00;100298.44;10345811;28;96943;-85
2023/12/29 14:16:20;;;;;;;51.93;25.07;;;6.00;99.90;;;4.03;100.00;100297.72;10336278;28;97329;-85
2023/12/29 14:21:28;;;;;;;65.53;26.93;;;6.00;99.90;;;3.99;100.00;100304.19;10346260;28;96766;-85
2023/12/29 14:26:32;;;;;;;70.43;30.53;;;6.00;99.90;;;3.98;100.00;100310.41;10339222;28;96599;-85
2023/12/29 14:31:44;;;;;;;66.07;31.83;;;5.90;99.90;;;3.86;100.00;100328.00;10367963;27;97551;-87
2023/12/29 14:36:48;;;;;;;66.63;29.47;;;5.90;99.90;;;3.84;100.00;100321.16;10341437;28;98041;-88
2023/12/29 14:41:53;;;;;;;62.33;29.27;;;5.80;99.90;;;3.79;100.00;100332.06;10342102;28;96516;-87
2023/12/29 14:46:56;;;;;;;62.50;28.70;;;5.70;99.90;;;3.69;100.00;100337.19;10339291;28;97722;-88
2023/12/29 14:51:59;;;;;;;64.97;28.10;;;5.70;99.90;;;3.62;100.00;100335.19;10342545;28;97764;-88
2023/12/29 14:57:03;;;;;;;73.20;33.43;;;5.60;99.90;;;3.48;100.00;100333.63;10341433;28;97981;-87
2023/12/29 15:02:17;;;;;;;69.13;32.50;;;5.50;99.90;;;3.30;100.00;100350.78;10354079;28;96866;-87
2023/12/29 15:07:23;;;;;;;76.40;33.00;;;5.30;99.90;;;3.18;100.00;100355.22;10337837;28;97915;-88
2023/12/29 15:12:26;;;;;;;80.57;35.67;;;5.20;99.90;;;2.98;100.00;100355.88;10337549;28;96744;-88
2023/12/29 15:17:31;;;;;;;77.77;34.37;;;5.00;99.90;;;2.81;100.00;100363.22;10318805;28;97000;-88
2023/12/29 15:22:34;;;;;;;75.93;34.17;;;4.80;99.90;;;2.63;100.00;100361.94;10334725;28;96621;-87
2023/12/29 15:27:37;;;;;;;74.07;31.47;;;4.60;99.90;;;2.50;100.00;100355.94;10333763;28;96592;-86
2023/12/29 15:32:40;;;;;;;62.50;28.90;;;4.50;99.90;;;2.45;100.00;100365.91;10343499;28;96742;-86
2023/12/29 15:37:44;;;;;;;89.33;37.47;;;4.50;99.90;;;2.41;100.00;100363.53;10333183;28;97657;-87
2023/12/29 15:42:49;;;;;;;91.40;36.83;;;4.40;99.90;;;2.38;100.00;100366.38;10332957;28;96680;-86
2023/12/29 15:47:52;;;;;;;94.07;40.07;;;4.40;99.90;;;2.38;100.00;100376.84;10333549;28;96664;-86
2023/12/29 15:52:56;;;;;;;105.20;41.53;;;4.40;99.90;;;2.36;100.00;100363.03;10337245;28;97471;-85
2023/12/29 15:57:59;;;;;;;88.73;38.50;;;4.40;99.90;;;2.36;100.00;100355.16;10335876;28;96721;-86
2023/12/29 16:03:03;;;;;;;90.37;38.23;;;4.40;99.90;;;2.36;100.00;100360.41;10343325;28;97830;-86
2023/12/29 16:08:07;;;;;;;86.93;34.93;;;4.30;99.90;;;2.34;100.00;100351.81;10339724;28;96738;-86
2023/12/29 16:13:10;;;;;;;90.43;38.00;;;4.40;99.90;;;2.33;100.00;100365.84;10339239;28;96750;-86
2023/12/29 16:18:14;;;;;;;92.00;40.30;;;4.30;99.90;;;2.30;100.00;100386.25;10333300;28;96837;-86
2023/12/29 16:23:17;;;;;;;95.97;39.63;;;4.30;99.90;;;2.27;100.00;100342.69;10335612;28;96821;-85
2023/12/29 16:28:23;;;;;;;114.27;46.77;;;4.20;99.90;;;2.25;100.00;100351.63;10360705;27;96635;-93
2023/12/29 16:33:27;;;;;;;100.33;43.40;;;4.20;99.90;;;2.18;100.00;100332.91;10338439;28;97193;-93
2023/12/29 16:38:30;;;;;;;103.33;43.30;;;4.20;99.90;;;2.14;100.00;100349.78;10333950;28;96584;-95
2023/12/29 16:43:33;;;;;;;135.20;56.80;;;4.10;99.90;;;2.03;100.00;100341.84;10337673;28;96662;-95
2023/12/29 16:48:37;;;;;;;120.17;51.17;;;4.10;99.90;;;1.92;100.00;100339.16;10333840;28;97258;-89
2023/12/29 16:53:40;;;;;;;114.20;48.13;;;3.90;99.90;;;1.74;100.00;100336.91;10256209;28;96852;-96
2023/12/29 16:58:44;;;;;;;111.37;49.40;;;3.80;99.90;;;1.57;100.00;100337.25;10245811;28;96669;-94
2023/12/29 17:03:49;;;;;;;140.70;55.40;;;3.70;99.90;;;1.46;100.00;100339.78;10253967;28;96639;-92
2023/12/29 17:08:52;;;;;;;115.20;49.07;;;3.50;99.90;;;1.30;100.00;100335.59;10255116;28;96637;-94
2023/12/29 17:13:56;;;;;;;122.47;53.77;;;3.40;99.90;;;1.10;100.00;100323.03;10245825;28;96759;-93
2023/12/29 17:18:59;;;;;;;127.70;55.37;;;3.20;99.90;;;1.05;100.00;100332.97;10266131;28;96631;-94
2023/12/29 17:24:03;;;;;;;148.47;58.30;;;3.10;99.90;;;0.93;100.00;100325.94;10260516;28;96572;-94
2023/12/29 17:29:07;;;;;;;143.07;58.97;;;3.00;99.90;;;0.87;100.00;100340.28;10261583;28;97325;-93
2023/12/29 17:34:10;;;;;;;213.40;84.97;;;2.90;99.90;;;0.72;100.00;100320.34;10259226;28;96962;-93
2023/12/29 17:39:14;;;;;;;164.73;69.07;;;2.80;99.90;;;0.70;100.00;100338.78;10258323;28;96654;-93
2023/12/29 17:44:27;;;;;;;161.07;67.33;;;2.70;99.90;;;0.62;100.00;100328.00;10257098;28;97751;-93
2023/12/29 17:49:30;;;;;;;145.77;64.93;;;2.70;99.90;;;0.60;100.00;100329.88;10289274;28;96968;-93
2023/12/29 17:54:34;;;;;;;161.37;67.83;;;2.60;99.90;;;0.50;100.00;100328.81;10344564;28;96825;-94
2023/12/29 17:59:37;;;;;;;128.27;53.97;;;2.50;99.90;;;0.48;100.00;100343.72;10343317;28;96623;-93
2023/12/29 18:04:41;;;;;;;123.83;51.43;;;2.50;99.90;;;0.41;100.00;100321.53;10340150;28;96836;-92
2023/12/29 18:09:45;;;;;;;118.37;49.97;;;2.40;99.90;;;0.37;100.00;100318.31;10340388;28;96631;-92
2023/12/29 18:14:52;;;;;;;109.07;48.57;;;2.40;99.90;;;0.39;100.00;100315.59;10341644;28;97664;-93
2023/12/29 18:19:57;;;;;;;115.70;56.47;;;2.40;99.90;;;0.42;100.00;100334.53;10341120;28;96862;-92
2023/12/29 18:25:00;;;;;;;106.90;47.37;;;2.40;99.90;;;0.39;100.00;100329.50;10341352;28;96520;-92
2023/12/29 18:30:05;;;;;;;101.80;41.93;;;2.40;99.90;;;0.25;100.00;100314.72;10343163;28;97067;-91
2023/12/29 18:35:09;;;;;;;117.27;51.90;;;2.40;99.90;;;0.26;100.00;100331.22;10338044;28;97735;-92
2023/12/29 18:40:13;;;;;;;114.10;53.57;;;2.40;99.90;;;0.27;100.00;100330.28;10318822;28;97304;-92
2023/12/29 18:45:16;;;;;;;100.40;45.87;;;2.30;99.90;;;0.17;100.00;100327.41;10337886;28;97368;-93
2023/12/29 18:50:20;;;;;;;113.17;46.53;;;2.30;99.90;;;0.14;100.00;100335.47;10340206;28;96984;-93
2023/12/29 18:55:24;;;;;;;127.17;50.47;;;2.20;99.90;;;0.05;100.00;100332.59;10341433;28;96545;-93
2023/12/29 19:00:27;;;;;;;151.43;62.43;;;2.20;99.90;;;0.04;100.00;100336.97;10338903;28;97010;-92
2023/12/29 19:05:30;;;;;;;140.13;56.23;;;2.10;99.90;;;-0.04;100.00;100334.03;10342306;28;96507;-92
2023/12/29 19:10:34;;;;;;;149.20;61.47;;;2.00;99.90;;;-0.11;100.00;100325.75;10323185;28;96799;-92
2023/12/29 19:15:38;;;;;;;147.97;58.30;;;2.00;99.90;;;-0.20;100.00;100321.09;10365346;28;96694;-92
2023/12/29 19:20:42;;;;;;;147.70;61.40;;;1.90;99.90;;;-0.25;100.00;100327.53;10371417;28;96524;-94
2023/12/29 19:25:45;;;;;;;139.33;55.60;;;1.90;99.90;;;-0.32;100.00;100322.69;10360964;28;97959;-92
2023/12/29 19:30:48;;;;;;;154.17;64.00;;;1.80;99.90;;;-0.36;100.00;100315.13;10358105;28;97307;-85
2023/12/29 19:35:53;;;;;;;161.47;73.07;;;1.80;99.90;;;-0.46;100.00;100312.28;10337309;28;96951;-86
2023/12/29 19:40:57;;;;;;;169.97;74.77;;;1.70;99.90;;;-0.48;100.00;100328.94;10334836;28;97750;-86
2023/12/29 19:46:04;;;;;;;155.00;63.67;;;1.60;99.90;;;-0.62;100.00;100304.53;10335580;28;96766;-85
2023/12/29 19:51:07;;;;;;;177.13;74.43;;;1.60;99.90;;;-0.57;100.00;100318.16;10337854;28;96814;-85
2023/12/29 19:56:11;;;;;;;146.80;60.50;;;1.50;99.90;;;-0.61;100.00;100323.63;10337246;28;96581;-85
2023/12/29 20:01:14;;;;;;;154.03;65.20;;;1.50;99.90;;;-0.70;100.00;100316.38;10338182;28;97481;-85
2023/12/29 20:06:23;;;;;;;146.57;59.47;;;1.40;99.90;;;-0.70;100.00;100319.00;10331801;28;96689;-85
2023/12/29 20:11:27;;;;;;;195.50;72.20;;;1.40;99.90;;;-0.66;100.00;100330.91;10314849;28;98336;-85
2023/12/29 20:16:30;;;;;;;234.17;85.53;;;1.40;99.90;;;-0.62;100.00;100321.97;10329591;28;97215;-85
2023/12/29 20:21:34;;;;;;;157.13;59.03;;;1.40;99.90;;;-0.64;100.00;100303.81;10327958;28;97222;-85
2023/12/29 20:26:38;;;;;;;114.17;43.97;;;1.50;99.90;;;-0.60;100.00;100312.25;10331088;28;96641;-85
2023/12/29 20:31:42;;;;;;;109.97;45.83;;;1.50;99.90;;;-0.62;100.00;100308.91;10324848;28;97700;-85